Time;durP1;ratioP1;P1;durP2;ratioP2;P2;SDS_P1;SDS_P2;PMS_P1;PMS_P2;Temp;Humidity;BMP_temperature;BMP_pressure;BME280_temperature;BME280_humidity;BME280_pressure;Samples;Min_cycle;Max_cycle;Signal;HPM_P1;HPM_P2
2022/10/20 00:01:59;;;;;;;31.10;13.10;;;10.60;99.90;;;;;;5049546;28;20466;-69
2022/10/20 00:04:24;;;;;;;28.20;13.65;;;10.60;99.90;;;;;;5050896;28;20037;-69
2022/10/20 00:06:50;;;;;;;27.85;12.50;;;10.60;99.90;;;;;;5048767;28;20033;-69
2022/10/20 00:09:15;;;;;;;30.50;12.38;;;10.60;99.90;;;;;;5051642;28;20033;-68
2022/10/20 00:11:42;;;;;;;29.17;12.80;;;10.60;99.90;;;;;;5045630;28;20056;-68
2022/10/20 00:14:08;;;;;;;27.27;12.80;;;10.60;99.90;;;;;;5048085;28;20389;-71
2022/10/20 00:16:36;;;;;;;28.58;13.30;;;10.70;99.90;;;;;;5049382;28;20528;-69
2022/10/20 00:19:03;;;;;;;28.08;12.68;;;10.70;99.90;;;;;;5048278;28;20039;-68
2022/10/20 00:21:29;;;;;;;27.27;12.93;;;10.80;99.90;;;;;;5049959;28;20021;-67
2022/10/20 00:23:57;;;;;;;27.60;12.05;;;10.80;99.90;;;;;;5049285;28;20078;-71
2022/10/20 00:26:25;;;;;;;26.80;12.48;;;10.80;99.90;;;;;;5050738;28;20029;-70
2022/10/20 00:28:52;;;;;;;36.33;12.70;;;10.80;99.90;;;;;;5045272;28;20033;-67
2022/10/20 00:31:19;;;;;;;28.25;13.00;;;10.80;99.90;;;;;;5049391;28;20071;-71
2022/10/20 00:33:46;;;;;;;28.58;12.32;;;10.80;99.90;;;;;;5039712;28;20169;-73
2022/10/20 00:36:14;;;;;;;29.40;12.70;;;10.80;99.90;;;;;;5048406;28;20036;-72
2022/10/20 00:38:41;;;;;;;23.67;11.63;;;10.80;99.90;;;;;;5049127;28;20035;-72
2022/10/20 00:41:08;;;;;;;29.63;12.85;;;10.70;99.90;;;;;;5047879;28;20764;-70
2022/10/20 00:43:52;;;;;;;27.17;12.23;;;10.70;99.90;;;;;;5049834;28;20060;-68
2022/10/20 00:46:22;;;;;;;25.92;11.40;;;10.60;99.90;;;;;;5048343;28;20036;-70
2022/10/20 00:48:52;;;;;;;28.08;12.05;;;10.60;99.90;;;;;;5048169;28;20064;-74
2022/10/20 00:51:21;;;;;;;29.40;12.07;;;10.50;99.90;;;;;;5048460;28;20048;-67
2022/10/20 00:53:49;;;;;;;30.33;12.60;;;10.50;99.90;;;;;;5050304;28;20309;-76
2022/10/20 00:56:15;;;;;;;31.77;11.73;;;10.50;99.90;;;;;;5048785;28;20113;-70
2022/10/20 00:58:42;;;;;;;25.52;12.00;;;10.50;99.90;;;;;;5049684;28;20033;-72
2022/10/20 01:01:09;;;;;;;28.13;12.80;;;10.40;99.90;;;;;;5046032;28;20029;-71
2022/10/20 01:04:01;;;;;;;26.80;12.45;;;10.50;99.90;;;;;;5048574;28;20036;-71
2022/10/20 01:06:27;;;;;;;29.42;12.95;;;10.50;99.90;;;;;;5045667;28;20045;-68
2022/10/20 01:08:53;;;;;;;27.73;12.38;;;10.50;99.90;;;;;;5047738;28;20028;-71
2022/10/20 01:11:37;;;;;;;27.80;12.85;;;10.50;99.90;;;;;;5049584;28;20063;-69
2022/10/20 01:14:17;;;;;;;29.83;12.38;;;10.50;99.90;;;;;;5047401;28;20033;-71
2022/10/20 01:17:08;;;;;;;25.98;12.45;;;10.60;99.90;;;;;;5036354;28;20032;-69
2022/10/20 01:20:01;;;;;;;27.65;12.07;;;10.60;99.90;;;;;;5045597;28;20052;-69
2022/10/20 01:23:00;;;;;;;25.67;11.88;;;10.60;99.90;;;;;;5041985;28;20033;-67
2022/10/20 01:25:44;;;;;;;25.77;12.13;;;10.70;99.90;;;;;;5030316;28;20037;-73
2022/10/20 01:28:38;;;;;;;27.75;12.52;;;10.70;99.90;;;;;;5046012;28;20044;-71
2022/10/20 01:31:19;;;;;;;32.00;11.80;;;10.70;99.90;;;;;;5031534;28;20064;-71
2022/10/20 01:33:56;;;;;;;24.73;10.90;;;10.70;99.90;;;;;;5046951;28;20099;-70
2022/10/20 01:36:45;;;;;;;29.00;12.18;;;10.60;99.90;;;;;;5030272;28;20026;-69
2022/10/20 01:39:32;;;;;;;29.13;11.93;;;10.50;99.90;;;;;;5040416;28;20021;-69
2022/10/20 01:42:07;;;;;;;25.65;11.95;;;10.50;99.90;;;;;;5046859;28;20033;-67
2022/10/20 01:44:35;;;;;;;27.23;13.02;;;10.60;99.90;;;;;;5044621;28;20516;-70
2022/10/20 01:47:02;;;;;;;28.17;12.63;;;10.60;99.90;;;;;;5048926;28;20036;-69
2022/10/20 01:49:28;;;;;;;27.17;12.77;;;10.80;99.90;;;;;;5045950;28;20469;-70
2022/10/20 01:51:54;;;;;;;29.65;13.05;;;10.80;99.90;;;;;;5047973;28;20068;-73
2022/10/20 01:54:28;;;;;;;31.73;14.27;;;10.80;99.90;;;;;;5048749;28;20033;-71
2022/10/20 01:57:34;;;;;;;32.00;13.27;;;10.90;99.90;;;;;;5043553;28;20021;-74
2022/10/20 02:00:14;;;;;;;31.48;13.52;;;11.00;99.90;;;;;;5046765;28;20041;-72
2022/10/20 02:03:03;;;;;;;30.38;14.02;;;11.00;99.90;;;;;;5048228;28;20037;-71
2022/10/20 02:05:44;;;;;;;36.55;15.43;;;11.10;99.90;;;;;;5042737;28;20157;-68
2022/10/20 02:08:28;;;;;;;44.30;17.60;;;11.30;99.90;;;;;;5047785;28;20063;-71
2022/10/20 02:10:59;;;;;;;46.00;18.20;;;11.40;99.90;;;;;;5046241;28;20037;-75
2022/10/20 02:13:27;;;;;;;42.38;18.48;;;11.50;99.90;;;;;;5047371;28;20036;-69
2022/10/20 02:15:55;;;;;;;47.28;19.13;;;11.60;99.90;;;;;;5047094;28;20482;-73
2022/10/20 02:18:29;;;;;;;49.58;18.63;;;11.60;99.90;;;;;;5048084;28;20477;-67
2022/10/20 02:20:57;;;;;;;43.92;18.75;;;11.60;99.90;;;;;;5046050;28;20120;-74
2022/10/20 02:23:23;;;;;;;46.28;18.63;;;11.60;99.90;;;;;;5042613;28;20029;-70
2022/10/20 02:25:51;;;;;;;42.90;18.00;;;11.50;99.90;;;;;;5037178;28;20437;-70
2022/10/20 02:28:19;;;;;;;46.67;18.77;;;11.50;99.90;;;;;;5041249;28;20029;-69
2022/10/20 02:30:46;;;;;;;48.90;19.17;;;11.50;99.90;;;;;;5046548;28;20078;-71
2022/10/20 02:33:12;;;;;;;51.67;19.65;;;11.40;99.90;;;;;;5048151;28;20359;-71
2022/10/20 02:35:49;;;;;;;54.17;21.50;;;11.40;99.90;;;;;;5049051;28;20025;-70
2022/10/20 02:38:14;;;;;;;57.90;20.40;;;11.40;99.90;;;;;;5047549;28;20025;-72
2022/10/20 02:40:40;;;;;;;51.25;20.23;;;11.30;99.90;;;;;;5048007;28;20032;-71
2022/10/20 02:43:06;;;;;;;50.80;20.90;;;11.30;99.90;;;;;;5047778;28;20065;-72
2022/10/20 02:45:31;;;;;;;53.13;20.27;;;11.30;99.90;;;;;;5047268;28;20025;-69
2022/10/20 02:47:57;;;;;;;50.38;20.42;;;11.30;99.90;;;;;;5044608;28;20040;-76
2022/10/20 02:50:23;;;;;;;52.97;21.27;;;11.30;99.90;;;;;;5045881;28;20144;-70
2022/10/20 02:52:48;;;;;;;51.92;21.42;;;11.20;99.90;;;;;;5046472;28;20035;-69
2022/10/20 02:55:14;;;;;;;49.30;20.80;;;11.20;99.90;;;;;;5045537;28;20726;-71
2022/10/20 02:57:39;;;;;;;53.83;21.13;;;11.20;99.90;;;;;;5045232;28;20020;-71
2022/10/20 03:00:06;;;;;;;56.60;20.42;;;11.20;99.90;;;;;;5036674;28;20033;-72
2022/10/20 03:02:32;;;;;;;53.15;19.30;;;11.20;99.90;;;;;;5045108;28;20032;-69
2022/10/20 03:04:58;;;;;;;50.05;19.77;;;11.20;99.90;;;;;;5039082;28;20025;-75
2022/10/20 03:07:23;;;;;;;48.20;21.13;;;11.20;99.90;;;;;;5045870;28;20466;-69
2022/10/20 03:09:49;;;;;;;52.70;20.60;;;11.20;99.90;;;;;;5046660;28;20182;-69
2022/10/20 03:12:15;;;;;;;47.58;20.27;;;11.10;99.90;;;;;;5044179;28;20048;-75
2022/10/20 03:14:41;;;;;;;47.20;19.42;;;11.10;99.90;;;;;;5046734;28;20033;-72
2022/10/20 03:17:07;;;;;;;48.00;20.27;;;11.10;99.90;;;;;;5045257;28;20021;-66
2022/10/20 03:19:33;;;;;;;46.17;18.50;;;11.10;99.90;;;;;;5048493;28;20087;-65
2022/10/20 03:21:59;;;;;;;47.55;19.23;;;11.10;99.90;;;;;;5046585;28;20040;-71
2022/10/20 03:24:24;;;;;;;44.45;18.98;;;11.00;99.90;;;;;;5047049;28;20036;-67
2022/10/20 03:26:50;;;;;;;42.80;18.42;;;11.00;99.90;;;;;;5048351;28;20033;-67
2022/10/20 03:29:16;;;;;;;42.70;18.08;;;11.00;99.90;;;;;;5047350;28;20060;-67
2022/10/20 03:31:41;;;;;;;44.97;18.55;;;11.00;99.90;;;;;;5047982;28;20040;-65
2022/10/20 03:34:07;;;;;;;40.88;17.35;;;10.90;99.90;;;;;;5051326;28;20450;-67
2022/10/20 03:36:33;;;;;;;44.58;18.65;;;10.90;99.90;;;;;;5051730;28;20037;-68
2022/10/20 03:38:59;;;;;;;37.67;15.88;;;10.90;99.90;;;;;;5051895;28;20113;-71
2022/10/20 03:41:24;;;;;;;36.70;16.67;;;10.90;99.90;;;;;;5050743;28;20037;-67
2022/10/20 03:43:50;;;;;;;40.50;16.58;;;10.80;99.90;;;;;;5051846;28;20057;-69
2022/10/20 03:46:16;;;;;;;32.33;15.43;;;10.80;99.90;;;;;;5051367;28;20520;-68
2022/10/20 03:48:41;;;;;;;35.78;15.18;;;10.90;99.90;;;;;;5051971;28;20062;-65
2022/10/20 03:51:10;;;;;;;31.58;14.43;;;10.90;99.90;;;;;;5050202;28;20425;-66
2022/10/20 03:53:36;;;;;;;36.60;15.20;;;10.90;99.90;;;;;;5051891;28;20040;-67
2022/10/20 03:56:06;;;;;;;31.60;14.75;;;10.90;99.90;;;;;;5051474;28;20021;-65
2022/10/20 03:58:31;;;;;;;34.72;15.18;;;10.90;99.90;;;;;;5051945;28;20454;-66
2022/10/20 04:00:57;;;;;;;32.13;14.05;;;10.90;99.90;;;;;;5051617;28;20047;-73
2022/10/20 04:03:23;;;;;;;32.30;14.45;;;10.90;99.90;;;;;;5051050;28;20067;-67
2022/10/20 04:05:48;;;;;;;30.83;13.55;;;10.90;99.90;;;;;;5050977;28;20028;-65
2022/10/20 04:08:14;;;;;;;31.48;14.48;;;10.90;99.90;;;;;;5049688;28;20033;-68
2022/10/20 04:10:40;;;;;;;31.52;14.20;;;10.90;99.90;;;;;;5051600;28;20041;-68
2022/10/20 04:13:05;;;;;;;32.80;13.85;;;10.90;99.90;;;;;;5050614;28;20033;-68
2022/10/20 04:15:31;;;;;;;32.45;14.45;;;10.90;99.90;;;;;;5051365;28;20108;-67
2022/10/20 04:17:57;;;;;;;28.20;13.88;;;10.90;99.90;;;;;;5051542;28;20052;-65
2022/10/20 04:20:22;;;;;;;29.48;13.27;;;10.90;99.90;;;;;;5048766;28;20037;-68
2022/10/20 04:22:48;;;;;;;32.78;14.77;;;10.90;99.90;;;;;;5051499;28;20450;-67
2022/10/20 04:25:13;;;;;;;31.77;14.43;;;10.80;99.90;;;;;;5050553;28;20078;-67
2022/10/20 04:27:40;;;;;;;32.13;14.23;;;10.90;99.90;;;;;;5051368;28;20025;-66
2022/10/20 04:30:07;;;;;;;28.85;13.45;;;10.90;99.90;;;;;;5050489;28;20033;-65
2022/10/20 04:32:33;;;;;;;33.13;15.15;;;10.90;99.90;;;;;;5051059;28;20422;-69
2022/10/20 04:34:59;;;;;;;30.77;14.25;;;10.90;99.90;;;;;;5047570;28;20163;-72
2022/10/20 04:37:24;;;;;;;30.17;13.75;;;10.90;99.90;;;;;;5049911;28;20552;-67
2022/10/20 04:39:50;;;;;;;30.02;14.63;;;10.80;99.90;;;;;;5051485;28;20055;-68
2022/10/20 04:42:17;;;;;;;33.08;14.73;;;10.80;99.90;;;;;;5050334;28;20029;-68
2022/10/20 04:44:43;;;;;;;31.98;14.48;;;10.90;99.90;;;;;;5050423;28;20461;-68
2022/10/20 04:47:09;;;;;;;29.42;13.82;;;10.80;99.90;;;;;;5050288;28;20028;-66
2022/10/20 04:49:35;;;;;;;32.28;14.48;;;10.90;99.90;;;;;;5050071;28;20119;-68
2022/10/20 04:52:01;;;;;;;34.00;15.55;;;10.90;99.90;;;;;;5050792;28;20500;-72
2022/10/20 04:54:27;;;;;;;29.70;14.30;;;10.90;99.90;;;;;;5050371;28;20033;-67
2022/10/20 04:56:52;;;;;;;30.75;14.27;;;10.90;99.90;;;;;;5050875;28;20021;-66
2022/10/20 04:59:18;;;;;;;30.60;13.93;;;10.90;99.90;;;;;;5050014;28;20128;-66
2022/10/20 05:01:44;;;;;;;28.50;13.63;;;11.00;99.90;;;;;;5049137;28;20469;-67
2022/10/20 05:04:10;;;;;;;34.67;15.15;;;11.00;99.90;;;;;;5049968;28;20029;-68
2022/10/20 05:06:36;;;;;;;33.13;15.93;;;11.00;99.90;;;;;;5050680;28;20044;-68
2022/10/20 05:09:04;;;;;;;33.00;14.82;;;11.00;99.90;;;;;;5050367;28;20104;-72
2022/10/20 05:11:33;;;;;;;29.10;13.80;;;11.00;99.90;;;;;;5050424;28;20513;-68
2022/10/20 05:13:59;;;;;;;27.77;13.88;;;11.00;99.90;;;;;;5050099;28;20036;-66
2022/10/20 05:16:25;;;;;;;30.17;14.77;;;11.00;99.90;;;;;;5047534;28;20037;-67
2022/10/20 05:18:53;;;;;;;28.80;14.02;;;11.10;99.90;;;;;;5049424;28;20033;-67
2022/10/20 05:21:21;;;;;;;28.13;13.55;;;11.10;99.90;;;;;;5049294;28;20529;-67
2022/10/20 05:23:47;;;;;;;27.70;13.10;;;11.00;99.90;;;;;;5050155;28;20052;-65
2022/10/20 05:26:17;;;;;;;27.38;13.68;;;11.00;99.90;;;;;;5049580;28;20029;-66
2022/10/20 05:28:45;;;;;;;29.08;13.70;;;11.10;99.90;;;;;;5049070;28;20024;-67
2022/10/20 05:31:11;;;;;;;27.33;13.57;;;11.10;99.90;;;;;;5048621;28;20084;-66
2022/10/20 05:33:38;;;;;;;27.02;13.40;;;11.00;99.90;;;;;;5050227;28;20037;-66
2022/10/20 05:36:09;;;;;;;28.38;14.13;;;11.00;99.90;;;;;;5049828;28;20025;-69
2022/10/20 05:38:35;;;;;;;;;;;11.00;99.90;;;;;;5050478;28;20018;-65
2022/10/20 05:41:15;;;;;;;26.83;13.10;;;11.00;99.90;;;;;;5050069;28;19905;-66
2022/10/20 05:43:41;;;;;;;27.60;12.82;;;11.00;99.90;;;;;;5049833;28;20083;-66
2022/10/20 05:46:07;;;;;;;28.98;13.27;;;11.00;99.90;;;;;;5048363;28;20095;-73
2022/10/20 05:48:34;;;;;;;26.10;12.32;;;11.10;99.90;;;;;;5049971;28;20048;-67
2022/10/20 05:51:11;;;;;;;28.25;13.07;;;11.10;99.90;;;;;;5049820;28;20579;-68
2022/10/20 05:53:38;;;;;;;25.65;12.73;;;11.10;99.90;;;;;;5049568;28;20025;-67
2022/10/20 05:56:06;;;;;;;25.40;12.43;;;11.10;99.90;;;;;;5049337;28;20116;-71
2022/10/20 05:58:32;;;;;;;34.22;12.75;;;11.10;99.90;;;;;;5049421;28;20466;-64
2022/10/20 06:01:23;;;;;;;27.13;13.98;;;11.10;99.90;;;;;;5048050;28;20032;-67
2022/10/20 06:03:49;;;;;;;;;;;11.10;99.90;;;;;;5050082;28;20071;-66
2022/10/20 06:06:16;;;;;;;26.33;12.18;;;11.20;99.90;;;;;;5048428;28;19912;-67
2022/10/20 06:08:41;;;;;;;24.90;12.30;;;11.20;99.90;;;;;;5049703;28;20489;-66
2022/10/20 06:11:09;;;;;;;27.27;13.63;;;11.20;99.90;;;;;;5046659;28;20084;-71
2022/10/20 06:13:35;;;;;;;26.02;12.73;;;11.20;99.90;;;;;;5049421;28;20518;-69
2022/10/20 06:16:06;;;;;;;26.70;13.73;;;11.20;99.90;;;;;;5049423;28;20028;-65
2022/10/20 06:18:32;;;;;;;;;;;11.20;99.90;;;;;;5049269;28;20025;-66
2022/10/20 06:20:59;;;;;;;26.25;12.38;;;11.20;99.90;;;;;;5049135;28;19916;-67
2022/10/20 06:23:25;;;;;;;26.85;13.00;;;11.30;99.90;;;;;;5048359;28;20143;-70
2022/10/20 06:25:51;;;;;;;25.90;13.45;;;11.30;99.90;;;;;;5048533;28;20100;-67
2022/10/20 06:28:16;;;;;;;25.48;13.35;;;11.30;99.90;;;;;;5048198;28;20112;-67
2022/10/20 06:30:42;;;;;;;27.38;13.55;;;11.40;99.90;;;;;;5047040;28;20040;-66
2022/10/20 06:33:11;;;;;;;25.08;13.02;;;11.30;99.90;;;;;;5047474;28;20036;-72
2022/10/20 06:35:37;;;;;;;27.40;12.98;;;11.40;99.90;;;;;;5048199;28;20061;-67
2022/10/20 06:38:03;;;;;;;28.20;14.00;;;11.30;99.90;;;;;;5048870;28;20052;-67
2022/10/20 06:40:28;;;;;;;28.05;13.07;;;11.30;99.90;;;;;;5048000;28;20217;-67
2022/10/20 06:42:54;;;;;;;25.95;13.20;;;11.30;99.90;;;;;;5048735;28;20033;-69
2022/10/20 06:45:19;;;;;;;28.63;13.95;;;11.30;99.90;;;;;;5048460;28;20213;-69
2022/10/20 06:47:45;;;;;;;27.75;13.05;;;11.40;99.90;;;;;;5048949;28;20025;-69
2022/10/20 06:50:11;;;;;;;27.98;13.57;;;11.40;99.90;;;;;;5046574;28;20037;-72
2022/10/20 06:52:36;;;;;;;25.83;13.30;;;11.30;99.90;;;;;;5047540;28;20029;-65
2022/10/20 06:55:02;;;;;;;26.70;12.50;;;11.30;99.90;;;;;;5048802;28;20033;-66
2022/10/20 06:57:31;;;;;;;25.73;12.88;;;11.40;99.90;;;;;;5048031;28;20036;-67
2022/10/20 06:59:56;;;;;;;27.15;13.32;;;11.40;99.90;;;;;;5048631;28;20481;-67
2022/10/20 07:02:22;;;;;;;27.25;13.15;;;11.40;99.90;;;;;;5046714;28;20029;-66
2022/10/20 07:04:51;;;;;;;29.90;13.55;;;11.40;99.90;;;;;;5047007;28;20039;-65
2022/10/20 07:07:16;;;;;;;28.13;13.07;;;11.50;99.90;;;;;;5046935;28;20029;-67
2022/10/20 07:09:42;;;;;;;24.98;12.75;;;11.50;99.90;;;;;;5048469;28;20036;-65
2022/10/20 07:12:08;;;;;;;25.48;12.73;;;11.50;99.90;;;;;;5048418;28;20503;-70
2022/10/20 07:14:36;;;;;;;22.60;12.13;;;11.50;99.90;;;;;;5046599;28;20035;-67
2022/10/20 07:17:02;;;;;;;25.65;12.02;;;11.60;99.90;;;;;;5047729;28;20044;-64
2022/10/20 07:19:28;;;;;;;25.80;12.63;;;11.60;99.90;;;;;;5046949;28;20836;-66
2022/10/20 07:21:54;;;;;;;26.45;12.25;;;11.60;99.90;;;;;;5048597;28;20036;-67
2022/10/20 07:24:19;;;;;;;25.55;12.90;;;11.60;99.90;;;;;;5047429;28;20032;-65
2022/10/20 07:26:45;;;;;;;27.83;12.52;;;11.60;99.90;;;;;;5048729;28;20110;-68
2022/10/20 07:29:12;;;;;;;24.45;12.85;;;11.60;99.90;;;;;;5048188;28;20417;-72
2022/10/20 07:31:46;;;;;;;23.70;11.73;;;11.70;99.90;;;;;;5048070;28;20033;-67
2022/10/20 07:34:14;;;;;;;22.42;11.98;;;11.70;99.90;;;;;;5046486;28;20485;-71
2022/10/20 07:36:44;;;;;;;26.60;12.18;;;11.80;99.90;;;;;;5047381;28;20033;-66
2022/10/20 07:39:11;;;;;;;22.05;11.88;;;11.80;99.90;;;;;;5047307;28;20039;-69
2022/10/20 07:41:38;;;;;;;22.55;11.57;;;12.00;99.90;;;;;;5047593;28;20041;-65
2022/10/20 07:44:05;;;;;;;23.45;10.95;;;12.10;99.90;;;;;;5047924;28;20048;-66
2022/10/20 07:46:30;;;;;;;23.20;11.32;;;12.10;99.90;;;;;;5046094;28;20037;-69
2022/10/20 07:48:56;;;;;;;20.30;11.38;;;12.20;99.90;;;;;;5047972;28;20025;-66
2022/10/20 07:51:24;;;;;;;23.25;11.43;;;12.20;99.90;;;;;;5047260;28;20033;-65
2022/10/20 07:54:10;;;;;;;21.90;11.43;;;12.20;99.90;;;;;;5047169;28;20041;-68
2022/10/20 07:56:41;;;;;;;17.92;10.70;;;12.40;99.90;;;;;;5046275;28;20041;-65
2022/10/20 07:59:08;;;;;;;20.42;10.80;;;12.40;99.90;;;;;;5048123;28;20037;-65
2022/10/20 08:01:34;;;;;;;21.63;10.82;;;12.50;99.90;;;;;;5047380;28;20104;-69
2022/10/20 08:04:00;;;;;;;25.10;10.43;;;12.60;99.90;;;;;;5047899;28;20493;-67
2022/10/20 08:06:26;;;;;;;18.50;10.30;;;12.70;99.90;;;;;;5047277;28;20033;-67
2022/10/20 08:08:53;;;;;;;21.00;10.23;;;12.80;99.90;;;;;;5046436;28;20031;-67
2022/10/20 08:11:18;;;;;;;21.60;11.38;;;12.80;99.90;;;;;;5045838;28;20083;-66
2022/10/20 08:13:44;;;;;;;21.85;11.23;;;12.70;99.90;;;;;;5047634;28;20036;-67
2022/10/20 08:16:11;;;;;;;18.98;10.57;;;12.70;99.90;;;;;;5048063;28;20128;-66
2022/10/20 08:18:37;;;;;;;21.88;11.15;;;12.70;99.90;;;;;;5048259;28;20037;-65
2022/10/20 08:21:07;;;;;;;20.63;11.05;;;12.80;99.90;;;;;;5051533;28;20029;-66
2022/10/20 08:23:32;;;;;;;19.90;10.70;;;12.80;99.90;;;;;;5050180;28;20029;-67
2022/10/20 08:25:58;;;;;;;20.63;11.15;;;13.00;99.90;;;;;;5049267;28;20052;-67
2022/10/20 08:28:23;;;;;;;20.38;10.25;;;13.00;99.90;;;;;;5050638;28;20078;-65
2022/10/20 08:30:49;;;;;;;20.98;11.20;;;13.00;99.90;;;;;;5049874;28;20037;-66
2022/10/20 08:33:15;;;;;;;17.27;9.85;;;13.00;99.90;;;;;;5050986;28;20471;-72
2022/10/20 08:35:40;;;;;;;17.98;9.60;;;13.10;99.90;;;;;;5051015;28;20064;-67
2022/10/20 08:38:06;;;;;;;20.40;10.70;;;13.20;99.90;;;;;;5051025;28;20040;-65
2022/10/20 08:40:35;;;;;;;18.20;9.65;;;13.40;99.90;;;;;;5049703;28;20425;-65
2022/10/20 08:43:00;;;;;;;17.23;8.88;;;13.50;99.90;;;;;;5051179;28;20068;-67
2022/10/20 08:45:28;;;;;;;19.15;9.57;;;13.60;99.90;;;;;;5050423;28;20025;-68
2022/10/20 08:47:57;;;;;;;15.43;9.10;;;13.80;99.90;;;;;;5050993;28;20033;-68
2022/10/20 08:50:27;;;;;;;18.25;9.60;;;13.70;99.90;;;;;;5049996;28;20047;-67
2022/10/20 08:52:56;;;;;;;16.33;9.10;;;13.80;99.90;;;;;;5051188;28;20029;-68
2022/10/20 08:55:27;;;;;;;23.83;10.05;;;13.80;99.90;;;;;;5049155;28;20098;-64
2022/10/20 08:57:58;;;;;;;16.75;9.63;;;13.80;99.90;;;;;;5050997;28;20032;-67
2022/10/20 09:00:24;;;;;;;19.15;10.32;;;13.80;99.90;;;;;;5049185;28;20060;-67
2022/10/20 09:02:50;;;;;;;17.45;9.07;;;13.70;99.90;;;;;;5050808;28;20069;-68
2022/10/20 09:05:21;;;;;;;19.58;10.10;;;13.70;99.90;;;;;;5050155;28;20133;-70
2022/10/20 09:07:48;;;;;;;17.17;9.43;;;13.80;99.90;;;;;;5049681;28;20099;-67
2022/10/20 09:10:35;;;;;;;17.08;9.60;;;13.80;99.90;;;;;;5049559;28;20029;-66
2022/10/20 09:13:15;;;;;;;16.42;9.13;;;13.90;99.90;;;;;;5049266;28;20720;-66
2022/10/20 09:15:41;;;;;;;16.15;9.07;;;13.80;99.90;;;;;;5048361;28;20028;-69
2022/10/20 09:18:11;;;;;;;19.60;9.93;;;13.90;99.90;;;;;;5050496;28;20529;-66
2022/10/20 09:20:45;;;;;;;17.63;10.00;;;13.90;99.90;;;;;;5049813;28;20059;-65
2022/10/20 09:23:16;;;;;;;19.67;10.05;;;13.70;99.90;;;;;;5050169;28;20041;-67
2022/10/20 09:25:44;;;;;;;15.73;9.57;;;13.70;99.90;;;;;;5049664;28;20021;-65
2022/10/20 09:28:21;;;;;;;17.33;9.20;;;13.70;99.90;;;;;;5050496;28;20053;-64
2022/10/20 09:30:47;;;;;;;16.67;9.27;;;13.80;99.90;;;;;;5048516;28;20106;-65
2022/10/20 09:33:22;;;;;;;18.35;9.48;;;14.00;99.90;;;;;;5050210;28;20056;-67
2022/10/20 09:35:49;;;;;;;17.73;9.80;;;14.30;99.90;;;;;;5050134;28;20036;-67
2022/10/20 09:38:21;;;;;;;70.70;30.08;;;14.40;99.90;;;;;;5050175;28;20029;-64
2022/10/20 09:41:17;;;;;;;107.97;41.10;;;14.50;99.90;;;;;;5048748;28;20120;-67
2022/10/20 09:43:54;;;;;;;132.65;51.22;;;14.60;99.90;;;;;;5049283;28;20095;-66
2022/10/20 09:46:26;;;;;;;22.35;11.20;;;14.70;99.90;;;;;;5049453;28;20217;-70
2022/10/20 09:48:53;;;;;;;41.75;19.40;;;14.70;99.90;;;;;;5049635;28;20064;-66
2022/10/20 09:51:29;;;;;;;181.32;80.03;;;14.70;99.90;;;;;;5049165;28;20491;-71
2022/10/20 09:54:02;;;;;;;41.47;20.33;;;14.90;99.90;;;;;;5050050;28;20119;-68
2022/10/20 09:56:40;;;;;;;368.60;168.48;;;15.10;99.90;;;;;;5047720;28;20029;-68
2022/10/20 09:59:27;;;;;;;26.05;14.65;;;15.30;99.90;;;;;;5047782;28;20055;-66
2022/10/20 10:01:56;;;;;;;239.20;115.03;;;15.40;99.90;;;;;;5049143;28;20468;-67
2022/10/20 10:04:37;;;;;;;311.98;135.07;;;15.50;99.90;;;;;;5049036;28;20029;-72
2022/10/20 10:07:05;;;;;;;205.38;92.00;;;15.50;99.90;;;;;;5049406;28;20171;-65
2022/10/20 10:09:36;;;;;;;27.40;15.27;;;15.50;99.90;;;;;;5048485;28;20040;-69
2022/10/20 10:12:23;;;;;;;31.00;15.18;;;15.40;99.90;;;;;;5048703;28;20541;-65
2022/10/20 10:14:52;;;;;;;17.45;9.40;;;15.40;99.90;;;;;;5049809;28;20029;-64
2022/10/20 10:17:43;;;;;;;26.52;11.90;;;15.10;99.90;;;;;;5048986;28;20500;-66
2022/10/20 10:20:08;;;;;;;18.33;10.70;;;15.10;99.90;;;;;;5049089;28;20029;-66
2022/10/20 10:22:35;;;;;;;70.97;36.65;;;15.00;99.90;;;;;;5048434;28;20098;-68
2022/10/20 10:25:01;;;;;;;48.15;27.63;;;14.90;99.90;;;;;;5049225;28;20033;-67
2022/10/20 10:27:30;;;;;;;45.58;26.65;;;15.00;99.90;;;;;;5047337;28;20029;-65
2022/10/20 10:30:28;;;;;;;31.38;16.23;;;14.90;99.90;;;;;;5048116;28;20473;-66
2022/10/20 10:32:54;;;;;;;43.28;25.65;;;14.80;99.90;;;;;;5049059;28;20175;-66
2022/10/20 10:35:35;;;;;;;39.13;21.35;;;14.70;99.90;;;;;;5047852;28;20389;-69
2022/10/20 10:38:01;;;;;;;22.35;13.05;;;14.60;99.90;;;;;;5049095;28;20037;-69
2022/10/20 10:40:38;;;;;;;28.02;16.20;;;14.50;99.90;;;;;;5048048;28;20051;-68
2022/10/20 10:43:28;;;;;;;22.27;11.75;;;14.50;99.90;;;;;;5046554;28;20029;-66
2022/10/20 10:46:05;;;;;;;17.38;10.13;;;14.40;99.90;;;;;;5048966;28;20057;-66
2022/10/20 10:48:53;;;;;;;17.65;9.55;;;14.50;99.90;;;;;;5046866;28;20429;-67
2022/10/20 10:51:37;;;;;;;20.30;10.80;;;14.60;99.90;;;;;;5048761;28;20037;-66
2022/10/20 10:54:17;;;;;;;18.48;10.20;;;14.60;99.90;;;;;;5047527;28;20420;-66
2022/10/20 10:56:45;;;;;;;19.27;11.10;;;14.70;99.90;;;;;;5048024;28;20029;-66
2022/10/20 10:59:39;;;;;;;18.23;9.70;;;14.70;99.90;;;;;;5048502;28;20037;-67
2022/10/20 11:02:08;;;;;;;25.38;10.25;;;14.80;99.90;;;;;;5047762;28;20033;-65
2022/10/20 11:05:04;;;;;;;21.60;10.43;;;14.80;99.90;;;;;;5047152;28;20057;-69
2022/10/20 11:08:00;;;;;;;19.40;10.23;;;14.80;99.90;;;;;;5047876;28;20037;-67
2022/10/20 11:10:53;;;;;;;20.33;10.00;;;14.70;99.90;;;;;;5048101;28;20055;-71
2022/10/20 11:14:03;;;;;;;16.30;9.68;;;14.90;99.90;;;;;;5048605;28;20033;-65
2022/10/20 11:16:40;;;;;;;17.63;10.18;;;14.90;99.90;;;;;;5013512;28;20055;-66
2022/10/20 11:19:14;;;;;;;19.52;11.50;;;15.10;99.90;;;;;;5047823;28;20031;-66
2022/10/20 11:22:08;;;;;;;18.67;9.23;;;15.50;99.90;;;;;;5046232;28;20482;-69
2022/10/20 11:24:58;;;;;;;18.08;9.40;;;15.70;99.90;;;;;;5048460;28;20044;-68
2022/10/20 11:27:32;;;;;;;17.40;9.45;;;15.80;99.90;;;;;;5048507;28;20508;-70
2022/10/20 11:30:14;;;;;;;16.13;9.05;;;15.80;99.90;;;;;;5048380;28;20029;-68
2022/10/20 11:32:56;;;;;;;16.90;9.20;;;15.80;99.90;;;;;;5046463;28;20033;-67
2022/10/20 11:35:39;;;;;;;18.02;9.10;;;15.60;99.90;;;;;;5048186;28;20033;-65
2022/10/20 11:38:31;;;;;;;15.20;8.40;;;15.60;99.90;;;;;;5048429;28;20040;-69
2022/10/20 11:41:09;;;;;;;15.88;9.23;;;15.50;99.90;;;;;;5048227;28;20040;-66
2022/10/20 11:43:45;;;;;;;16.80;9.35;;;15.60;99.90;;;;;;5047357;28;20164;-70
2022/10/20 11:46:18;;;;;;;16.42;10.05;;;15.50;99.90;;;;;;5048151;28;20033;-68
2022/10/20 11:48:52;;;;;;;18.73;9.15;;;15.50;99.90;;;;;;5047241;28;20035;-65
2022/10/20 11:51:30;;;;;;;21.13;9.25;;;15.40;99.90;;;;;;5047979;28;20041;-66
2022/10/20 11:54:21;;;;;;;18.42;9.45;;;15.50;99.90;;;;;;5049998;28;20083;-67
2022/10/20 11:57:05;;;;;;;16.98;9.45;;;15.60;99.90;;;;;;5051150;28;20026;-65
2022/10/20 11:59:57;;;;;;;18.45;10.82;;;15.60;99.90;;;;;;5051289;28;20031;-67
2022/10/20 12:02:34;;;;;;;19.08;10.48;;;15.60;99.90;;;;;;5029192;28;20129;-65
2022/10/20 12:05:15;;;;;;;18.30;11.23;;;15.60;99.90;;;;;;5051766;28;20051;-67
2022/10/20 12:07:49;;;;;;;17.73;10.00;;;15.60;99.90;;;;;;5050071;28;20385;-67
2022/10/20 12:10:42;;;;;;;21.85;11.27;;;15.60;99.90;;;;;;5051634;28;20632;-67
2022/10/20 12:13:29;;;;;;;18.80;11.20;;;15.40;99.90;;;;;;5051709;28;20567;-67
2022/10/20 12:15:55;;;;;;;21.05;11.13;;;15.30;99.90;;;;;;5050708;28;20029;-69
2022/10/20 12:18:25;;;;;;;25.58;12.05;;;15.30;99.90;;;;;;5051733;28;20031;-66
2022/10/20 12:20:55;;;;;;;22.88;12.05;;;15.20;99.90;;;;;;5050766;28;20036;-66
2022/10/20 12:23:42;;;;;;;23.23;11.50;;;15.10;99.90;;;;;;5050286;28;20036;-67
2022/10/20 12:26:33;;;;;;;21.13;12.25;;;15.20;99.90;;;;;;5051526;28;20029;-67
2022/10/20 12:29:00;;;;;;;21.25;11.40;;;15.20;99.90;;;;;;5049197;28;20432;-65
2022/10/20 12:32:03;;;;;;;26.70;12.38;;;15.30;99.90;;;;;;5049344;28;20048;-66
2022/10/20 12:34:39;;;;;;;21.58;11.70;;;15.30;99.90;;;;;;5050557;28;20163;-71
2022/10/20 12:37:26;;;;;;;19.42;11.07;;;15.30;99.90;;;;;;5051024;28;20021;-66
2022/10/20 12:40:00;;;;;;;22.42;12.20;;;15.20;99.90;;;;;;5050169;28;20025;-66
2022/10/20 12:42:25;;;;;;;21.35;11.95;;;15.20;99.90;;;;;;5051400;28;20059;-67
2022/10/20 12:44:51;;;;;;;22.75;11.70;;;15.20;99.90;;;;;;5047779;28;20045;-67
2022/10/20 12:47:29;;;;;;;20.90;11.95;;;15.20;99.90;;;;;;5049709;28;20104;-66
2022/10/20 12:50:37;;;;;;;23.08;11.77;;;15.20;99.90;;;;;;5049232;28;20025;-67